Sanliurfa, Turkey

12:41 AM EEST on July 25, 2014 (GMT +0300)
SANLIURFA GAP (LTCS) Elev 2707 ft | 37.45 °N, 38.90 °E | Change Station

Current weather conditions updated 21 minutes ago

Clear
Clear
81 °F
Feels Like 81 °F
N
14
Wind Variable Wind from West

Today is forecast to be nearly the same temperature as yesterday.

Today
High -- | Low -- °F
--% Chance of Precip.
Yesterday
High -- | Low -- °F
Precip. -- in
5:23 AM 7:38 PM
Waning Crescent, 4% visible
Pressure 29.71 in
Visibility -9999.0 miles
Clouds
Heat Index 81 °F
Dew Point 59 °F
Humidity 48%
Rainfall 0.00 in
Snow Depth Not available.
UV Not available.
Pollen Not available.
Air Quality Not available.
Flu Activity Not available.
METAR LTCS 242120Z 26012KT CAVOK 27/15 Q1006 RMK RWY22 25011KT

More Conditions Fewer Conditions

Pressure 29.71 in
Visibility -9999.0 miles
Clouds
Heat Index 81 °F
Dew Point 59 °F
Humidity 48%
Rainfall 0.00 in
Snow Depth Not available.
UV Not available.
Pollen Not available.
Air Quality Not available.
Flu Activity Not available.
METAR LTCS 242120Z 26012KT CAVOK 27/15 Q1006 RMK RWY22 25011KT

More Conditions Fewer Conditions

10-Day Weather Forecast

Almanac

Astronomy

Jul. 25, 2014 Rise Set
Actual Time 5:23 AM EEST 7:38 PM EEST
Civil Twilight 4:54 AM EEST 8:07 PM EEST
Nautical Twilight 4:18 AM EEST 8:43 PM EEST
Astronomical Twilight 3:39 AM EEST 9:22 PM EEST
Moon 4:04 AM EEST (7/25) 6:22 PM EEST (7/25)
Length of Visible Light 15h 13m
Length of Day
14h 14m
Tomorrow will be 1m 34s shorter.
Waning Crescent, 4% of the Moon is Illuminated
Jul 24
Waning Crescent
Jul 26
New
Aug 3
First Quarter
Aug 10
Full
Aug 17
Last Quarter

Yesterday's Extremes

Country Highs Country Lows

Community

WunderPhotos

Upload Photos

1,737,139 photos uploaded!

WunderBlogs® & News

Nearby

Snow Depth

Not available.

Earthquake Activity

City Distance Mag. Time & Date
No recent earthquake activity has been reported nearby.
Minimum magnitude displayed is 2.5.

Coastal Water Temperatures

Place Temperature
No Stations Reporting

Nearby Weather Stations

There are no personal weather stations in this area.